sensor_id;sensor_type;location;lat;lon;timestamp;P1;durP1;ratioP1;P2;durP2;ratioP2
41861;SDS011;27537;57.134;-2.136;2022-12-29T00:00:55;8.43;;;2.30;;
41861;SDS011;27537;57.134;-2.136;2022-12-29T00:03:22;6.05;;;2.33;;
41861;SDS011;27537;57.134;-2.136;2022-12-29T00:05:55;8.82;;;2.55;;
41861;SDS011;27537;57.134;-2.136;2022-12-29T00:08:23;8.15;;;3.17;;
41861;SDS011;27537;57.134;-2.136;2022-12-29T00:13:35;8.70;;;2.50;;
41861;SDS011;27537;57.134;-2.136;2022-12-29T00:16:20;6.22;;;2.10;;
41861;SDS011;27537;57.134;-2.136;2022-12-29T00:18:48;4.05;;;2.10;;
41861;SDS011;27537;57.134;-2.136;2022-12-29T00:21:17;4.88;;;1.83;;
41861;SDS011;27537;57.134;-2.136;2022-12-29T00:24:05;4.57;;;1.65;;
41861;SDS011;27537;57.134;-2.136;2022-12-29T00:29:49;4.93;;;2.05;;
41861;SDS011;27537;57.134;-2.136;2022-12-29T00:32:35;5.50;;;1.95;;
41861;SDS011;27537;57.134;-2.136;2022-12-29T00:35:28;4.18;;;1.90;;
41861;SDS011;27537;57.134;-2.136;2022-12-29T00:37:59;2.90;;;1.20;;
41861;SDS011;27537;57.134;-2.136;2022-12-29T00:40:48;1.40;;;1.00;;
41861;SDS011;27537;57.134;-2.136;2022-12-29T00:43:34;4.38;;;1.30;;
41861;SDS011;27537;57.134;-2.136;2022-12-29T00:46:19;3.15;;;1.20;;
41861;SDS011;27537;57.134;-2.136;2022-12-29T00:48:46;2.95;;;1.50;;
41861;SDS011;27537;57.134;-2.136;2022-12-29T00:51:32;5.30;;;1.58;;
41861;SDS011;27537;57.134;-2.136;2022-12-29T00:53:59;4.50;;;1.55;;
41861;SDS011;27537;57.134;-2.136;2022-12-29T00:56:26;2.40;;;1.20;;
41861;SDS011;27537;57.134;-2.136;2022-12-29T00:58:53;1.98;;;1.17;;
41861;SDS011;27537;57.134;-2.136;2022-12-29T01:01:19;2.55;;;1.25;;
41861;SDS011;27537;57.134;-2.136;2022-12-29T01:03:47;4.25;;;1.42;;
41861;SDS011;27537;57.134;-2.136;2022-12-29T01:06:14;2.35;;;1.17;;
41861;SDS011;27537;57.134;-2.136;2022-12-29T01:08:41;2.20;;;1.05;;
41861;SDS011;27537;57.134;-2.136;2022-12-29T01:11:09;2.42;;;1.10;;
41861;SDS011;27537;57.134;-2.136;2022-12-29T01:13:37;2.67;;;1.10;;
41861;SDS011;27537;57.134;-2.136;2022-12-29T01:16:05;6.07;;;1.35;;
41861;SDS011;27537;57.134;-2.136;2022-12-29T01:18:33;3.53;;;1.40;;
41861;SDS011;27537;57.134;-2.136;2022-12-29T01:21:01;4.20;;;1.25;;
41861;SDS011;27537;57.134;-2.136;2022-12-29T01:23:29;3.17;;;1.30;;
41861;SDS011;27537;57.134;-2.136;2022-12-29T01:25:56;1.40;;;1.02;;
41861;SDS011;27537;57.134;-2.136;2022-12-29T01:28:23;2.65;;;1.00;;
41861;SDS011;27537;57.134;-2.136;2022-12-29T01:30:51;1.98;;;1.08;;
41861;SDS011;27537;57.134;-2.136;2022-12-29T01:33:18;2.35;;;1.10;;
41861;SDS011;27537;57.134;-2.136;2022-12-29T01:35:45;2.92;;;1.20;;
41861;SDS011;27537;57.134;-2.136;2022-12-29T01:38:12;3.05;;;1.30;;
41861;SDS011;27537;57.134;-2.136;2022-12-29T01:40:43;1.83;;;1.00;;
41861;SDS011;27537;57.134;-2.136;2022-12-29T01:43:12;2.20;;;1.02;;
41861;SDS011;27537;57.134;-2.136;2022-12-29T01:45:52;2.55;;;1.10;;
41861;SDS011;27537;57.134;-2.136;2022-12-29T01:48:20;2.60;;;1.20;;
41861;SDS011;27537;57.134;-2.136;2022-12-29T01:50:50;2.10;;;1.10;;
41861;SDS011;27537;57.134;-2.136;2022-12-29T01:53:19;2.22;;;1.02;;
41861;SDS011;27537;57.134;-2.136;2022-12-29T01:55:52;2.63;;;1.35;;
41861;SDS011;27537;57.134;-2.136;2022-12-29T01:58:27;1.58;;;1.10;;
41861;SDS011;27537;57.134;-2.136;2022-12-29T02:00:57;2.95;;;1.20;;
41861;SDS011;27537;57.134;-2.136;2022-12-29T02:03:24;2.30;;;1.20;;
41861;SDS011;27537;57.134;-2.136;2022-12-29T02:05:57;2.92;;;1.33;;
41861;SDS011;27537;57.134;-2.136;2022-12-29T02:08:29;1.98;;;1.10;;
41861;SDS011;27537;57.134;-2.136;2022-12-29T02:10:56;2.05;;;1.20;;
41861;SDS011;27537;57.134;-2.136;2022-12-29T02:13:30;3.72;;;1.05;;
41861;SDS011;27537;57.134;-2.136;2022-12-29T02:27:09;2.60;;;1.15;;
41861;SDS011;27537;57.134;-2.136;2022-12-29T02:37:22;1.80;;;1.00;;
41861;SDS011;27537;57.134;-2.136;2022-12-29T02:43:04;2.47;;;1.30;;
41861;SDS011;27537;57.134;-2.136;2022-12-29T02:48:19;2.63;;;1.20;;
41861;SDS011;27537;57.134;-2.136;2022-12-29T02:53:23;2.85;;;1.13;;
41861;SDS011;27537;57.134;-2.136;2022-12-29T02:56:10;1.75;;;1.00;;
41861;SDS011;27537;57.134;-2.136;2022-12-29T02:58:36;1.83;;;1.05;;
41861;SDS011;27537;57.134;-2.136;2022-12-29T03:09:52;2.70;;;1.10;;
41861;SDS011;27537;57.134;-2.136;2022-12-29T03:12:48;1.73;;;1.00;;
41861;SDS011;27537;57.134;-2.136;2022-12-29T03:15:45;1.67;;;1.13;;
41861;SDS011;27537;57.134;-2.136;2022-12-29T03:21:08;2.97;;;1.20;;
41861;SDS011;27537;57.134;-2.136;2022-12-29T03:24:15;1.83;;;1.00;;
41861;SDS011;27537;57.134;-2.136;2022-12-29T03:26:48;1.98;;;1.00;;
41861;SDS011;27537;57.134;-2.136;2022-12-29T03:29:19;1.35;;;0.90;;
41861;SDS011;27537;57.134;-2.136;2022-12-29T03:31:47;1.10;;;0.90;;
41861;SDS011;27537;57.134;-2.136;2022-12-29T03:34:16;1.98;;;0.90;;
41861;SDS011;27537;57.134;-2.136;2022-12-29T03:36:53;0.80;;;0.80;;
41861;SDS011;27537;57.134;-2.136;2022-12-29T03:39:32;1.20;;;1.00;;
41861;SDS011;27537;57.134;-2.136;2022-12-29T03:42:00;0.80;;;0.80;;
41861;SDS011;27537;57.134;-2.136;2022-12-29T03:44:38;0.80;;;0.80;;
41861;SDS011;27537;57.134;-2.136;2022-12-29T03:47:07;0.70;;;0.70;;
41861;SDS011;27537;57.134;-2.136;2022-12-29T03:49:37;0.95;;;0.85;;
41861;SDS011;27537;57.134;-2.136;2022-12-29T03:52:03;1.10;;;0.90;;
41861;SDS011;27537;57.134;-2.136;2022-12-29T03:54:31;1.23;;;0.98;;
41861;SDS011;27537;57.134;-2.136;2022-12-29T03:56:59;1.00;;;0.80;;
41861;SDS011;27537;57.134;-2.136;2022-12-29T03:59:26;1.20;;;0.80;;
41861;SDS011;27537;57.134;-2.136;2022-12-29T04:01:52;1.00;;;0.90;;
41861;SDS011;27537;57.134;-2.136;2022-12-29T04:04:19;1.00;;;0.90;;
41861;SDS011;27537;57.134;-2.136;2022-12-29T04:06:46;1.00;;;0.90;;
41861;SDS011;27537;57.134;-2.136;2022-12-29T04:09:13;1.00;;;0.90;;
41861;SDS011;27537;57.134;-2.136;2022-12-29T04:11:40;1.35;;;0.90;;
41861;SDS011;27537;57.134;-2.136;2022-12-29T04:14:07;1.00;;;0.90;;
41861;SDS011;27537;57.134;-2.136;2022-12-29T04:16:33;1.75;;;1.00;;
41861;SDS011;27537;57.134;-2.136;2022-12-29T04:19:02;0.82;;;0.82;;
41861;SDS011;27537;57.134;-2.136;2022-12-29T04:21:29;1.00;;;0.90;;
41861;SDS011;27537;57.134;-2.136;2022-12-29T04:23:56;1.00;;;0.90;;
41861;SDS011;27537;57.134;-2.136;2022-12-29T04:26:22;1.02;;;0.90;;
41861;SDS011;27537;57.134;-2.136;2022-12-29T04:28:49;1.00;;;0.90;;
41861;SDS011;27537;57.134;-2.136;2022-12-29T04:31:16;1.75;;;0.90;;
41861;SDS011;27537;57.134;-2.136;2022-12-29T04:33:43;0.90;;;0.90;;
41861;SDS011;27537;57.134;-2.136;2022-12-29T04:36:10;1.10;;;0.90;;
41861;SDS011;27537;57.134;-2.136;2022-12-29T04:38:37;1.35;;;1.00;;
41861;SDS011;27537;57.134;-2.136;2022-12-29T04:41:04;0.90;;;0.77;;
41861;SDS011;27537;57.134;-2.136;2022-12-29T04:43:31;1.00;;;0.80;;
41861;SDS011;27537;57.134;-2.136;2022-12-29T04:45:58;1.00;;;0.90;;
41861;SDS011;27537;57.134;-2.136;2022-12-29T04:48:24;0.98;;;0.90;;
41861;SDS011;27537;57.134;-2.136;2022-12-29T04:50:51;1.00;;;0.90;;
41861;SDS011;27537;57.134;-2.136;2022-12-29T04:53:18;0.80;;;0.80;;
41861;SDS011;27537;57.134;-2.136;2022-12-29T04:55:48;1.20;;;1.00;;
41861;SDS011;27537;57.134;-2.136;2022-12-29T05:00:48;1.00;;;0.90;;
41861;SDS011;27537;57.134;-2.136;2022-12-29T05:03:16;1.00;;;0.90;;
41861;SDS011;27537;57.134;-2.136;2022-12-29T05:05:43;1.10;;;0.90;;
41861;SDS011;27537;57.134;-2.136;2022-12-29T05:08:10;0.98;;;0.90;;
41861;SDS011;27537;57.134;-2.136;2022-12-29T05:10:37;0.80;;;0.80;;
41861;SDS011;27537;57.134;-2.136;2022-12-29T05:13:04;1.00;;;0.90;;
41861;SDS011;27537;57.134;-2.136;2022-12-29T05:15:31;1.17;;;0.90;;
41861;SDS011;27537;57.134;-2.136;2022-12-29T05:17:58;1.25;;;0.82;;
41861;SDS011;27537;57.134;-2.136;2022-12-29T05:20:25;1.10;;;1.00;;
41861;SDS011;27537;57.134;-2.136;2022-12-29T05:22:52;1.00;;;0.82;;
41861;SDS011;27537;57.134;-2.136;2022-12-29T05:25:19;1.00;;;0.90;;
41861;SDS011;27537;57.134;-2.136;2022-12-29T05:27:45;1.48;;;1.00;;
41861;SDS011;27537;57.134;-2.136;2022-12-29T05:30:12;0.80;;;0.80;;
41861;SDS011;27537;57.134;-2.136;2022-12-29T05:32:39;1.00;;;0.90;;
41861;SDS011;27537;57.134;-2.136;2022-12-29T05:35:06;1.00;;;0.90;;
41861;SDS011;27537;57.134;-2.136;2022-12-29T05:37:33;0.93;;;0.90;;
41861;SDS011;27537;57.134;-2.136;2022-12-29T05:40:00;1.48;;;1.00;;
41861;SDS011;27537;57.134;-2.136;2022-12-29T05:42:27;0.80;;;0.80;;
41861;SDS011;27537;57.134;-2.136;2022-12-29T05:44:54;0.70;;;0.70;;
41861;SDS011;27537;57.134;-2.136;2022-12-29T05:47:20;1.10;;;0.80;;
41861;SDS011;27537;57.134;-2.136;2022-12-29T05:49:47;0.70;;;0.70;;
41861;SDS011;27537;57.134;-2.136;2022-12-29T05:52:14;0.80;;;0.80;;
41861;SDS011;27537;57.134;-2.136;2022-12-29T05:54:44;0.90;;;0.80;;
41861;SDS011;27537;57.134;-2.136;2022-12-29T05:57:13;1.00;;;0.88;;
41861;SDS011;27537;57.134;-2.136;2022-12-29T05:59:39;1.10;;;1.00;;
41861;SDS011;27537;57.134;-2.136;2022-12-29T06:02:06;0.93;;;0.82;;
41861;SDS011;27537;57.134;-2.136;2022-12-29T06:04:34;0.90;;;0.80;;
41861;SDS011;27537;57.134;-2.136;2022-12-29T06:07:00;1.00;;;0.90;;
41861;SDS011;27537;57.134;-2.136;2022-12-29T06:09:27;1.00;;;0.90;;
41861;SDS011;27537;57.134;-2.136;2022-12-29T06:11:54;0.90;;;0.80;;
41861;SDS011;27537;57.134;-2.136;2022-12-29T06:14:21;0.80;;;0.80;;
41861;SDS011;27537;57.134;-2.136;2022-12-29T06:16:47;0.73;;;0.73;;
41861;SDS011;27537;57.134;-2.136;2022-12-29T06:19:14;0.90;;;0.90;;
41861;SDS011;27537;57.134;-2.136;2022-12-29T06:21:42;0.80;;;0.80;;
41861;SDS011;27537;57.134;-2.136;2022-12-29T06:24:09;1.00;;;0.90;;
41861;SDS011;27537;57.134;-2.136;2022-12-29T06:26:37;1.15;;;0.80;;
41861;SDS011;27537;57.134;-2.136;2022-12-29T06:29:04;0.93;;;0.82;;
41861;SDS011;27537;57.134;-2.136;2022-12-29T06:31:31;1.00;;;0.90;;
41861;SDS011;27537;57.134;-2.136;2022-12-29T06:33:58;1.00;;;0.90;;
41861;SDS011;27537;57.134;-2.136;2022-12-29T06:36:31;1.00;;;0.90;;
41861;SDS011;27537;57.134;-2.136;2022-12-29T06:38:58;0.80;;;0.80;;
41861;SDS011;27537;57.134;-2.136;2022-12-29T06:41:25;0.80;;;0.80;;
41861;SDS011;27537;57.134;-2.136;2022-12-29T06:43:57;1.20;;;1.00;;
41861;SDS011;27537;57.134;-2.136;2022-12-29T06:46:24;1.00;;;0.90;;
41861;SDS011;27537;57.134;-2.136;2022-12-29T06:48:51;1.17;;;1.02;;
41861;SDS011;27537;57.134;-2.136;2022-12-29T06:51:18;2.40;;;0.90;;
41861;SDS011;27537;57.134;-2.136;2022-12-29T06:53:45;1.05;;;0.95;;
41861;SDS011;27537;57.134;-2.136;2022-12-29T06:56:11;1.05;;;0.90;;
41861;SDS011;27537;57.134;-2.136;2022-12-29T06:58:38;1.00;;;0.90;;
41861;SDS011;27537;57.134;-2.136;2022-12-29T07:01:05;0.93;;;0.90;;
41861;SDS011;27537;57.134;-2.136;2022-12-29T07:03:32;1.10;;;0.80;;
41861;SDS011;27537;57.134;-2.136;2022-12-29T07:05:59;1.30;;;1.17;;
41861;SDS011;27537;57.134;-2.136;2022-12-29T07:08:26;1.00;;;0.90;;
41861;SDS011;27537;57.134;-2.136;2022-12-29T07:10:53;1.48;;;1.00;;
41861;SDS011;27537;57.134;-2.136;2022-12-29T07:13:19;1.20;;;0.95;;
41861;SDS011;27537;57.134;-2.136;2022-12-29T07:15:46;1.30;;;1.00;;
41861;SDS011;27537;57.134;-2.136;2022-12-29T07:18:13;1.00;;;0.90;;
41861;SDS011;27537;57.134;-2.136;2022-12-29T07:20:40;1.23;;;1.00;;
41861;SDS011;27537;57.134;-2.136;2022-12-29T07:23:06;1.52;;;1.02;;
41861;SDS011;27537;57.134;-2.136;2022-12-29T07:25:33;1.75;;;1.10;;
41861;SDS011;27537;57.134;-2.136;2022-12-29T07:28:02;2.08;;;1.00;;
41861;SDS011;27537;57.134;-2.136;2022-12-29T07:30:30;2.85;;;1.10;;
41861;SDS011;27537;57.134;-2.136;2022-12-29T07:32:57;2.20;;;1.08;;
41861;SDS011;27537;57.134;-2.136;2022-12-29T07:35:23;1.10;;;1.00;;
41861;SDS011;27537;57.134;-2.136;2022-12-29T07:37:50;1.08;;;0.93;;
41861;SDS011;27537;57.134;-2.136;2022-12-29T07:40:17;1.60;;;1.00;;
41861;SDS011;27537;57.134;-2.136;2022-12-29T07:42:44;0.80;;;0.80;;
41861;SDS011;27537;57.134;-2.136;2022-12-29T07:45:10;1.88;;;1.00;;
41861;SDS011;27537;57.134;-2.136;2022-12-29T07:47:37;3.05;;;0.90;;
41861;SDS011;27537;57.134;-2.136;2022-12-29T07:50:04;1.10;;;0.90;;
41861;SDS011;27537;57.134;-2.136;2022-12-29T07:52:31;1.10;;;0.90;;
41861;SDS011;27537;57.134;-2.136;2022-12-29T07:54:58;1.30;;;1.10;;
41861;SDS011;27537;57.134;-2.136;2022-12-29T07:57:25;2.75;;;1.13;;
41861;SDS011;27537;57.134;-2.136;2022-12-29T07:59:57;1.25;;;0.90;;
41861;SDS011;27537;57.134;-2.136;2022-12-29T08:02:24;1.95;;;0.90;;
41861;SDS011;27537;57.134;-2.136;2022-12-29T08:04:53;1.05;;;0.90;;
41861;SDS011;27537;57.134;-2.136;2022-12-29T08:07:19;1.08;;;0.98;;
41861;SDS011;27537;57.134;-2.136;2022-12-29T08:09:46;2.55;;;1.00;;
41861;SDS011;27537;57.134;-2.136;2022-12-29T08:12:13;1.10;;;0.95;;
41861;SDS011;27537;57.134;-2.136;2022-12-29T08:14:40;1.23;;;0.98;;
41861;SDS011;27537;57.134;-2.136;2022-12-29T08:17:07;1.95;;;1.00;;
41861;SDS011;27537;57.134;-2.136;2022-12-29T08:19:33;1.08;;;0.90;;
41861;SDS011;27537;57.134;-2.136;2022-12-29T08:22:00;1.40;;;1.00;;
41861;SDS011;27537;57.134;-2.136;2022-12-29T08:24:27;2.58;;;1.10;;
41861;SDS011;27537;57.134;-2.136;2022-12-29T08:26:54;3.35;;;1.05;;
41861;SDS011;27537;57.134;-2.136;2022-12-29T08:29:21;1.25;;;1.00;;
41861;SDS011;27537;57.134;-2.136;2022-12-29T08:31:48;1.75;;;1.00;;
41861;SDS011;27537;57.134;-2.136;2022-12-29T08:34:18;2.15;;;0.98;;
41861;SDS011;27537;57.134;-2.136;2022-12-29T08:36:45;1.10;;;1.00;;
41861;SDS011;27537;57.134;-2.136;2022-12-29T08:39:12;1.45;;;1.00;;
41861;SDS011;27537;57.134;-2.136;2022-12-29T08:41:39;1.73;;;1.27;;
41861;SDS011;27537;57.134;-2.136;2022-12-29T08:44:06;3.28;;;1.10;;
41861;SDS011;27537;57.134;-2.136;2022-12-29T08:46:32;2.30;;;1.10;;
41861;SDS011;27537;57.134;-2.136;2022-12-29T08:48:59;2.13;;;1.20;;
41861;SDS011;27537;57.134;-2.136;2022-12-29T08:51:26;1.50;;;1.10;;
41861;SDS011;27537;57.134;-2.136;2022-12-29T08:53:53;1.80;;;1.02;;
41861;SDS011;27537;57.134;-2.136;2022-12-29T08:56:20;1.80;;;1.17;;
41861;SDS011;27537;57.134;-2.136;2022-12-29T08:58:47;3.38;;;1.20;;
41861;SDS011;27537;57.134;-2.136;2022-12-29T09:01:14;1.42;;;1.10;;
41861;SDS011;27537;57.134;-2.136;2022-12-29T09:03:41;5.07;;;1.20;;
41861;SDS011;27537;57.134;-2.136;2022-12-29T09:06:27;2.47;;;1.10;;
41861;SDS011;27537;57.134;-2.136;2022-12-29T09:09:00;1.52;;;1.20;;
41861;SDS011;27537;57.134;-2.136;2022-12-29T09:11:27;2.10;;;1.10;;
41861;SDS011;27537;57.134;-2.136;2022-12-29T09:13:53;2.13;;;1.20;;
41861;SDS011;27537;57.134;-2.136;2022-12-29T09:16:22;1.42;;;1.10;;
41861;SDS011;27537;57.134;-2.136;2022-12-29T09:18:50;1.90;;;1.10;;
41861;SDS011;27537;57.134;-2.136;2022-12-29T09:21:17;2.25;;;1.20;;
41861;SDS011;27537;57.134;-2.136;2022-12-29T09:23:43;1.27;;;1.00;;
41861;SDS011;27537;57.134;-2.136;2022-12-29T09:26:10;3.78;;;1.20;;
41861;SDS011;27537;57.134;-2.136;2022-12-29T09:28:37;3.25;;;1.00;;
41861;SDS011;27537;57.134;-2.136;2022-12-29T09:31:04;1.67;;;1.00;;
41861;SDS011;27537;57.134;-2.136;2022-12-29T09:33:31;2.00;;;1.10;;
41861;SDS011;27537;57.134;-2.136;2022-12-29T09:36:01;1.67;;;1.05;;
41861;SDS011;27537;57.134;-2.136;2022-12-29T09:38:29;1.88;;;1.10;;
41861;SDS011;27537;57.134;-2.136;2022-12-29T09:40:57;1.33;;;1.00;;
41861;SDS011;27537;57.134;-2.136;2022-12-29T09:46:37;2.42;;;1.20;;
41861;SDS011;27537;57.134;-2.136;2022-12-29T09:51:35;1.88;;;1.00;;
41861;SDS011;27537;57.134;-2.136;2022-12-29T10:00:08;2.90;;;1.10;;
41861;SDS011;27537;57.134;-2.136;2022-12-29T10:02:44;1.52;;;1.00;;
41861;SDS011;27537;57.134;-2.136;2022-12-29T10:16:59;1.23;;;0.90;;
41861;SDS011;27537;57.134;-2.136;2022-12-29T10:25:44;1.63;;;0.93;;
41861;SDS011;27537;57.134;-2.136;2022-12-29T10:30:57;1.58;;;0.98;;
41861;SDS011;27537;57.134;-2.136;2022-12-29T10:33:37;1.40;;;1.00;;
41861;SDS011;27537;57.134;-2.136;2022-12-29T10:36:18;1.98;;;1.00;;
41861;SDS011;27537;57.134;-2.136;2022-12-29T10:39:16;1.52;;;1.00;;
41861;SDS011;27537;57.134;-2.136;2022-12-29T10:44:47;1.98;;;1.00;;
41861;SDS011;27537;57.134;-2.136;2022-12-29T10:47:18;1.75;;;1.00;;
41861;SDS011;27537;57.134;-2.136;2022-12-29T10:49:49;2.40;;;1.10;;
41861;SDS011;27537;57.134;-2.136;2022-12-29T10:52:16;4.50;;;1.20;;
41861;SDS011;27537;57.134;-2.136;2022-12-29T10:59:42;5.32;;;1.98;;
41861;SDS011;27537;57.134;-2.136;2022-12-29T11:07:18;1.65;;;1.10;;
41861;SDS011;27537;57.134;-2.136;2022-12-29T11:09:52;1.90;;;1.15;;
41861;SDS011;27537;57.134;-2.136;2022-12-29T11:12:30;4.80;;;1.30;;
41861;SDS011;27537;57.134;-2.136;2022-12-29T11:17:47;3.00;;;1.23;;
41861;SDS011;27537;57.134;-2.136;2022-12-29T11:20:26;1.30;;;1.07;;
41861;SDS011;27537;57.134;-2.136;2022-12-29T11:23:09;3.67;;;1.30;;
41861;SDS011;27537;57.134;-2.136;2022-12-29T11:26:34;2.58;;;1.20;;
41861;SDS011;27537;57.134;-2.136;2022-12-29T11:29:04;2.75;;;1.25;;
41861;SDS011;27537;57.134;-2.136;2022-12-29T11:31:41;2.95;;;1.20;;
41861;SDS011;27537;57.134;-2.136;2022-12-29T11:34:08;3.05;;;1.40;;
41861;SDS011;27537;57.134;-2.136;2022-12-29T11:36:54;2.85;;;1.40;;
41861;SDS011;27537;57.134;-2.136;2022-12-29T11:42:00;3.88;;;1.30;;
41861;SDS011;27537;57.134;-2.136;2022-12-29T11:44:30;3.42;;;1.48;;
41861;SDS011;27537;57.134;-2.136;2022-12-29T11:47:11;3.45;;;1.58;;
41861;SDS011;27537;57.134;-2.136;2022-12-29T11:49:52;4.82;;;1.70;;
41861;SDS011;27537;57.134;-2.136;2022-12-29T11:52:26;5.03;;;2.15;;
41861;SDS011;27537;57.134;-2.136;2022-12-29T11:54:55;6.03;;;2.30;;
41861;SDS011;27537;57.134;-2.136;2022-12-29T11:57:23;6.70;;;2.63;;
41861;SDS011;27537;57.134;-2.136;2022-12-29T11:59:55;8.00;;;2.20;;
41861;SDS011;27537;57.134;-2.136;2022-12-29T12:11:12;4.20;;;1.60;;
41861;SDS011;27537;57.134;-2.136;2022-12-29T12:14:01;7.85;;;1.88;;
41861;SDS011;27537;57.134;-2.136;2022-12-29T12:19:33;3.58;;;1.48;;
41861;SDS011;27537;57.134;-2.136;2022-12-29T12:22:13;5.95;;;1.60;;
41861;SDS011;27537;57.134;-2.136;2022-12-29T12:24:53;4.78;;;1.45;;
41861;SDS011;27537;57.134;-2.136;2022-12-29T12:27:26;4.13;;;1.50;;
41861;SDS011;27537;57.134;-2.136;2022-12-29T12:35:29;5.45;;;1.60;;
41861;SDS011;27537;57.134;-2.136;2022-12-29T12:43:35;4.28;;;1.73;;
41861;SDS011;27537;57.134;-2.136;2022-12-29T13:09:34;5.22;;;1.75;;
41861;SDS011;27537;57.134;-2.136;2022-12-29T13:17:57;5.57;;;1.60;;
41861;SDS011;27537;57.134;-2.136;2022-12-29T13:23:13;2.88;;;1.40;;
41861;SDS011;27537;57.134;-2.136;2022-12-29T13:31:00;3.55;;;1.48;;
41861;SDS011;27537;57.134;-2.136;2022-12-29T13:39:12;1.63;;;1.15;;
41861;SDS011;27537;57.134;-2.136;2022-12-29T13:41:50;2.42;;;1.35;;
41861;SDS011;27537;57.134;-2.136;2022-12-29T13:44:24;4.25;;;1.10;;
41861;SDS011;27537;57.134;-2.136;2022-12-29T13:47:04;3.08;;;1.33;;
41861;SDS011;27537;57.134;-2.136;2022-12-29T13:49:42;2.97;;;1.20;;
41861;SDS011;27537;57.134;-2.136;2022-12-29T13:52:16;1.85;;;1.17;;
41861;SDS011;27537;57.134;-2.136;2022-12-29T13:54:47;2.45;;;1.25;;
41861;SDS011;27537;57.134;-2.136;2022-12-29T14:00:12;3.08;;;1.30;;
41861;SDS011;27537;57.134;-2.136;2022-12-29T14:07:45;1.92;;;1.10;;
41861;SDS011;27537;57.134;-2.136;2022-12-29T14:13:14;1.75;;;1.10;;
41861;SDS011;27537;57.134;-2.136;2022-12-29T14:15:51;1.83;;;1.05;;
41861;SDS011;27537;57.134;-2.136;2022-12-29T14:18:22;1.95;;;1.00;;
41861;SDS011;27537;57.134;-2.136;2022-12-29T14:20:52;2.22;;;1.05;;
41861;SDS011;27537;57.134;-2.136;2022-12-29T14:28:31;2.75;;;1.10;;
41861;SDS011;27537;57.134;-2.136;2022-12-29T14:39:01;2.42;;;1.20;;
41861;SDS011;27537;57.134;-2.136;2022-12-29T14:41:36;3.28;;;1.40;;
41861;SDS011;27537;57.134;-2.136;2022-12-29T14:44:18;2.38;;;1.13;;
41861;SDS011;27537;57.134;-2.136;2022-12-29T14:46:48;2.15;;;1.10;;
41861;SDS011;27537;57.134;-2.136;2022-12-29T14:49:26;3.88;;;1.30;;
41861;SDS011;27537;57.134;-2.136;2022-12-29T14:52:05;2.55;;;1.10;;
41861;SDS011;27537;57.134;-2.136;2022-12-29T14:54:55;2.83;;;1.20;;
41861;SDS011;27537;57.134;-2.136;2022-12-29T14:57:27;4.90;;;1.58;;
41861;SDS011;27537;57.134;-2.136;2022-12-29T15:00:01;3.88;;;1.50;;
41861;SDS011;27537;57.134;-2.136;2022-12-29T15:02:33;3.15;;;1.33;;
41861;SDS011;27537;57.134;-2.136;2022-12-29T15:05:05;3.50;;;1.50;;
41861;SDS011;27537;57.134;-2.136;2022-12-29T15:07:47;3.75;;;1.40;;
41861;SDS011;27537;57.134;-2.136;2022-12-29T15:10:15;2.92;;;1.27;;
41861;SDS011;27537;57.134;-2.136;2022-12-29T15:12:48;6.72;;;2.67;;
41861;SDS011;27537;57.134;-2.136;2022-12-29T15:15:26;6.88;;;1.80;;
41861;SDS011;27537;57.134;-2.136;2022-12-29T15:17:56;5.50;;;1.83;;
41861;SDS011;27537;57.134;-2.136;2022-12-29T15:20:30;4.15;;;1.40;;
41861;SDS011;27537;57.134;-2.136;2022-12-29T15:22:58;5.18;;;1.55;;
41861;SDS011;27537;57.134;-2.136;2022-12-29T15:25:29;4.40;;;1.50;;
41861;SDS011;27537;57.134;-2.136;2022-12-29T15:27:59;4.10;;;1.33;;
41861;SDS011;27537;57.134;-2.136;2022-12-29T15:30:28;2.95;;;1.20;;
41861;SDS011;27537;57.134;-2.136;2022-12-29T15:32:55;4.15;;;1.40;;
41861;SDS011;27537;57.134;-2.136;2022-12-29T15:37:54;5.30;;;1.87;;
41861;SDS011;27537;57.134;-2.136;2022-12-29T15:40:32;3.38;;;1.55;;
41861;SDS011;27537;57.134;-2.136;2022-12-29T15:43:18;3.17;;;1.30;;
41861;SDS011;27537;57.134;-2.136;2022-12-29T15:45:54;4.18;;;1.20;;
41861;SDS011;27537;57.134;-2.136;2022-12-29T15:48:22;2.65;;;1.23;;
41861;SDS011;27537;57.134;-2.136;2022-12-29T15:50:51;2.17;;;1.20;;
41861;SDS011;27537;57.134;-2.136;2022-12-29T15:53:19;3.03;;;1.00;;
41861;SDS011;27537;57.134;-2.136;2022-12-29T15:55:52;6.18;;;1.77;;
41861;SDS011;27537;57.134;-2.136;2022-12-29T15:58:27;4.18;;;1.50;;
41861;SDS011;27537;57.134;-2.136;2022-12-29T16:00:56;3.30;;;1.40;;
41861;SDS011;27537;57.134;-2.136;2022-12-29T16:03:25;3.30;;;1.35;;
41861;SDS011;27537;57.134;-2.136;2022-12-29T16:05:57;3.95;;;1.42;;
41861;SDS011;27537;57.134;-2.136;2022-12-29T16:08:36;5.25;;;1.60;;
41861;SDS011;27537;57.134;-2.136;2022-12-29T16:13:54;4.47;;;1.50;;
41861;SDS011;27537;57.134;-2.136;2022-12-29T16:16:31;4.40;;;1.52;;
41861;SDS011;27537;57.134;-2.136;2022-12-29T16:19:03;6.70;;;2.10;;
41861;SDS011;27537;57.134;-2.136;2022-12-29T16:21:54;2.80;;;1.30;;
41861;SDS011;27537;57.134;-2.136;2022-12-29T16:24:23;4.22;;;1.60;;
41861;SDS011;27537;57.134;-2.136;2022-12-29T16:26:58;7.18;;;2.20;;
41861;SDS011;27537;57.134;-2.136;2022-12-29T16:29:32;7.68;;;2.35;;
41861;SDS011;27537;57.134;-2.136;2022-12-29T16:32:01;8.25;;;2.42;;
41861;SDS011;27537;57.134;-2.136;2022-12-29T16:39:48;4.30;;;1.58;;
41861;SDS011;27537;57.134;-2.136;2022-12-29T16:42:35;4.28;;;1.30;;
41861;SDS011;27537;57.134;-2.136;2022-12-29T16:45:36;4.15;;;1.55;;
41861;SDS011;27537;57.134;-2.136;2022-12-29T16:48:32;6.82;;;2.38;;
41861;SDS011;27537;57.134;-2.136;2022-12-29T16:51:10;8.98;;;2.00;;
41861;SDS011;27537;57.134;-2.136;2022-12-29T16:53:39;5.18;;;1.80;;
41861;SDS011;27537;57.134;-2.136;2022-12-29T16:58:39;3.72;;;1.50;;
41861;SDS011;27537;57.134;-2.136;2022-12-29T17:01:10;5.15;;;1.65;;
41861;SDS011;27537;57.134;-2.136;2022-12-29T17:03:42;7.30;;;2.83;;
41861;SDS011;27537;57.134;-2.136;2022-12-29T17:06:16;3.10;;;1.23;;
41861;SDS011;27537;57.134;-2.136;2022-12-29T17:08:44;3.15;;;1.10;;
41861;SDS011;27537;57.134;-2.136;2022-12-29T17:11:23;3.20;;;1.33;;
41861;SDS011;27537;57.134;-2.136;2022-12-29T17:16:53;2.45;;;1.20;;
41861;SDS011;27537;57.134;-2.136;2022-12-29T17:19:21;3.33;;;1.00;;
41861;SDS011;27537;57.134;-2.136;2022-12-29T17:21:55;2.83;;;1.10;;
41861;SDS011;27537;57.134;-2.136;2022-12-29T17:24:22;1.15;;;0.90;;
41861;SDS011;27537;57.134;-2.136;2022-12-29T17:26:50;3.35;;;1.10;;
41861;SDS011;27537;57.134;-2.136;2022-12-29T17:29:40;1.52;;;1.00;;
41861;SDS011;27537;57.134;-2.136;2022-12-29T17:32:09;2.80;;;1.20;;
41861;SDS011;27537;57.134;-2.136;2022-12-29T17:34:39;1.98;;;0.98;;
41861;SDS011;27537;57.134;-2.136;2022-12-29T17:37:49;2.42;;;1.30;;
41861;SDS011;27537;57.134;-2.136;2022-12-29T17:40:01;2.70;;;1.30;;
41861;SDS011;27537;57.134;-2.136;2022-12-29T17:42:29;2.50;;;1.20;;
41861;SDS011;27537;57.134;-2.136;2022-12-29T17:44:58;3.33;;;1.17;;
41861;SDS011;27537;57.134;-2.136;2022-12-29T17:47:27;3.45;;;1.60;;
41861;SDS011;27537;57.134;-2.136;2022-12-29T17:49:54;2.13;;;1.10;;
41861;SDS011;27537;57.134;-2.136;2022-12-29T17:52:20;4.30;;;1.88;;
41861;SDS011;27537;57.134;-2.136;2022-12-29T17:54:51;5.55;;;1.60;;
41861;SDS011;27537;57.134;-2.136;2022-12-29T17:57:19;26.55;;;12.18;;
41861;SDS011;27537;57.134;-2.136;2022-12-29T17:59:46;10.95;;;3.67;;
41861;SDS011;27537;57.134;-2.136;2022-12-29T18:02:31;12.90;;;4.43;;
41861;SDS011;27537;57.134;-2.136;2022-12-29T18:04:58;26.20;;;12.65;;
41861;SDS011;27537;57.134;-2.136;2022-12-29T18:07:26;11.38;;;4.75;;
41861;SDS011;27537;57.134;-2.136;2022-12-29T18:10:01;9.13;;;3.13;;
41861;SDS011;27537;57.134;-2.136;2022-12-29T18:15:00;7.57;;;2.42;;
41861;SDS011;27537;57.134;-2.136;2022-12-29T18:17:27;11.27;;;3.95;;
41861;SDS011;27537;57.134;-2.136;2022-12-29T18:19:54;7.88;;;2.70;;
41861;SDS011;27537;57.134;-2.136;2022-12-29T18:22:22;5.90;;;1.90;;